Time;durP1;ratioP1;P1;durP2;ratioP2;P2;SDS_P1;SDS_P2;PMS_P1;PMS_P2;Temp;Humidity;BMP_temperature;BMP_pressure;BME280_temperature;BME280_humidity;BME280_pressure;Samples;Min_cycle;Max_cycle;Signal;HPM_P1;HPM_P2
2022/11/21 00:00:15;;;;;;;17.58;16.48;;;;;;;9.07;60.76;100437.31;4974882;28;20113;-77
2022/11/21 00:02:43;;;;;;;16.85;15.65;;;;;;;9.08;60.97;100430.06;4972896;28;20033;-77
2022/11/21 00:05:08;;;;;;;17.48;16.17;;;;;;;9.07;60.80;100423.00;4974526;28;20031;-76
2022/11/21 00:07:34;;;;;;;17.00;15.90;;;;;;;9.07;61.22;100426.56;4973957;28;20031;-76
2022/11/21 00:09:59;;;;;;;19.33;17.90;;;;;;;9.08;61.08;100425.47;4989759;28;20089;-76
2022/11/21 00:12:25;;;;;;;17.80;16.58;;;;;;;9.08;61.09;100428.19;4974608;28;20038;-76
2022/11/21 00:14:50;;;;;;;19.23;17.73;;;;;;;9.09;61.01;100437.06;4974938;28;20023;-77
2022/11/21 00:17:16;;;;;;;17.77;16.70;;;;;;;9.08;61.06;100440.84;4974538;28;20034;-76
2022/11/21 00:19:41;;;;;;;17.05;15.73;;;;;;;9.07;61.26;100440.03;4989594;28;20035;-76
2022/11/21 00:22:06;;;;;;;19.45;17.75;;;;;;;9.08;60.80;100444.34;4973058;28;20038;-77
2022/11/21 00:24:32;;;;;;;17.88;16.73;;;;;;;9.08;61.03;100441.66;4973038;28;20026;-77
2022/11/21 00:26:57;;;;;;;18.88;17.08;;;;;;;9.08;61.03;100443.53;4974654;28;20031;-76
2022/11/21 00:29:22;;;;;;;17.58;16.58;;;;;;;9.08;60.82;100435.44;4989894;28;20034;-77
2022/11/21 00:31:48;;;;;;;16.48;15.57;;;;;;;9.07;61.07;100445.41;4973254;28;20120;-79
2022/11/21 00:34:14;;;;;;;18.67;17.50;;;;;;;9.08;60.95;100432.75;4974626;28;20590;-77
2022/11/21 00:36:40;;;;;;;17.63;16.63;;;;;;;9.08;61.03;100441.66;4989148;28;20051;-76
2022/11/21 00:39:05;;;;;;;19.67;18.23;;;;;;;9.07;61.04;100442.72;4973291;28;20061;-77
2022/11/21 00:41:30;;;;;;;18.05;16.98;;;;;;;9.08;61.02;100447.03;4989632;28;20121;-76
2022/11/21 00:43:56;;;;;;;18.13;17.02;;;;;;;9.07;61.14;100448.09;4972965;28;20062;-77
2022/11/21 00:46:21;;;;;;;18.00;16.80;;;;;;;9.08;60.92;100443.53;4974299;28;20031;-76
2022/11/21 00:48:46;;;;;;;17.83;16.45;;;;;;;9.08;61.00;100443.53;4974189;28;20034;-76
2022/11/21 00:51:12;;;;;;;17.05;15.95;;;;;;;9.06;61.23;100449.16;4972897;28;20126;-76
2022/11/21 00:53:37;;;;;;;17.48;16.45;;;;;;;9.06;60.84;100446.44;4973378;28;20031;-76
2022/11/21 00:56:02;;;;;;;17.83;16.63;;;;;;;9.06;60.83;100443.75;4972851;28;20479;-77
2022/11/21 00:58:28;;;;;;;17.38;16.30;;;;;;;9.07;61.06;100444.56;4972996;28;20396;-75
2022/11/21 01:01:02;;;;;;;16.83;15.82;;;;;;;9.07;60.91;100444.56;4974358;28;20042;-78
2022/11/21 01:03:27;;;;;;;18.83;17.73;;;;;;;9.07;61.07;100442.72;4973217;28;20097;-76
2022/11/21 01:05:53;;;;;;;19.23;18.13;;;;;;;9.07;60.92;100450.81;4975928;28;20039;-77
2022/11/21 01:08:18;;;;;;;17.60;16.60;;;;;;;9.07;60.87;100444.56;4976607;28;20042;-76
2022/11/21 01:10:43;;;;;;;16.38;15.48;;;;;;;9.07;60.97;100445.41;4976610;28;20039;-76
2022/11/21 01:13:09;;;;;;;18.25;16.73;;;;;;;9.07;61.16;100447.25;4992291;28;20035;-76
2022/11/21 01:15:34;;;;;;;17.20;16.08;;;;;;;9.06;60.89;100441.06;4992638;28;20062;-76
2022/11/21 01:17:59;;;;;;;18.40;17.02;;;;;;;9.06;60.89;100446.44;4992204;28;20449;-76
2022/11/21 01:20:25;;;;;;;17.35;16.35;;;;;;;9.07;60.90;100439.19;4992764;28;20081;-76
2022/11/21 01:22:50;;;;;;;16.58;15.57;;;;;;;9.07;60.94;100447.25;4975967;28;20062;-78
2022/11/21 01:25:15;;;;;;;16.67;15.68;;;;;;;9.07;60.98;100444.56;4992296;28;20035;-76
2022/11/21 01:27:41;;;;;;;17.33;16.33;;;;;;;9.06;60.97;100443.75;4976090;28;20061;-76
2022/11/21 01:30:06;;;;;;;17.58;16.35;;;;;;;9.07;61.04;100444.56;4977164;28;20470;-76
2022/11/21 01:32:32;;;;;;;17.92;16.83;;;;;;;9.06;60.81;100437.56;4977463;28;20121;-76
2022/11/21 01:34:57;;;;;;;18.00;16.88;;;;;;;9.07;61.07;100441.88;4975276;28;20062;-77
2022/11/21 01:37:22;;;;;;;17.00;16.00;;;;;;;9.06;60.88;100434.88;4976268;28;20062;-77
2022/11/21 01:39:48;;;;;;;16.85;15.93;;;;;;;9.06;61.07;100432.16;4991992;28;20547;-76
2022/11/21 01:42:13;;;;;;;18.83;17.52;;;;;;;9.04;60.97;100432.41;4976935;28;20121;-76
2022/11/21 01:44:48;;;;;;;16.65;15.65;;;;;;;9.04;60.90;100415.41;4976272;28;20030;-76
2022/11/21 01:47:13;;;;;;;19.95;18.00;;;;;;;9.05;61.08;100435.94;4977477;28;20046;-76
2022/11/21 01:49:40;;;;;;;16.40;15.32;;;;;;;9.04;61.05;100431.59;4975704;28;20027;-76
2022/11/21 01:52:11;;;;;;;20.10;18.55;;;;;;;9.03;60.99;100428.06;4976769;28;20035;-76
2022/11/21 01:54:44;;;;;;;17.55;16.55;;;;;;;9.01;60.73;100430.19;4992224;28;20062;-76
2022/11/21 01:57:34;;;;;;;20.50;18.90;;;;;;;9.01;60.94;100432.06;4976993;28;20027;-76
2022/11/21 02:00:11;;;;;;;16.60;15.60;;;;;;;9.01;61.14;100435.56;4992161;28;20367;-77
2022/11/21 02:02:44;;;;;;;17.67;16.58;;;;;;;9.00;60.82;100433.94;4975735;28;20455;-76
2022/11/21 02:05:16;;;;;;;17.83;16.55;;;;;;;9.00;61.20;100436.66;4976500;28;20098;-78
2022/11/21 02:07:44;;;;;;;16.90;15.90;;;;;;;9.00;61.06;100433.13;4976609;28;20031;-76
2022/11/21 02:10:11;;;;;;;18.13;16.90;;;;;;;9.00;61.03;100435.84;4975703;28;20046;-76
2022/11/21 02:12:49;;;;;;;17.65;16.65;;;;;;;9.00;61.10;100441.22;4975116;28;20038;-76
2022/11/21 02:15:16;;;;;;;16.83;15.57;;;;;;;9.00;60.89;100436.66;4975767;28;20073;-76
2022/11/21 02:17:41;;;;;;;16.40;15.50;;;;;;;8.99;60.98;100443.06;4974696;28;20284;-76
2022/11/21 02:20:11;;;;;;;18.35;17.17;;;;;;;9.00;61.09;100439.34;4976679;28;20118;-76
2022/11/21 02:22:39;;;;;;;16.95;15.80;;;;;;;9.00;61.03;100435.84;4976203;28;20031;-77
2022/11/21 02:25:07;;;;;;;19.50;18.00;;;;;;;8.99;60.96;100432.28;4990802;28;20039;-77
2022/11/21 02:27:33;;;;;;;15.98;14.68;;;;;;;9.00;60.74;100433.94;4975210;28;20081;-76
2022/11/21 02:29:59;;;;;;;15.85;14.95;;;;;;;9.00;60.81;100439.34;4975927;28;20027;-77
2022/11/21 02:32:33;;;;;;;17.95;16.75;;;;;;;9.00;61.13;100438.53;4975195;28;20042;-76
2022/11/21 02:34:58;;;;;;;16.92;16.02;;;;;;;9.00;60.86;100436.66;4974386;28;20058;-77
2022/11/21 02:37:23;;;;;;;16.02;15.13;;;;;;;9.00;60.89;100447.41;4974825;28;20145;-77
2022/11/21 02:39:49;;;;;;;16.10;15.20;;;;;;;9.00;60.88;100443.91;4975955;28;20043;-76
2022/11/21 02:42:35;;;;;;;18.55;17.27;;;;;;;9.00;60.74;100439.34;4975294;28;20041;-76
2022/11/21 02:45:17;;;;;;;16.75;15.75;;;;;;;8.98;60.88;100430.66;4991057;28;20059;-77
2022/11/21 02:47:44;;;;;;;17.15;16.05;;;;;;;8.98;60.74;100433.38;4991423;28;20340;-77
2022/11/21 02:50:10;;;;;;;18.98;17.83;;;;;;;8.98;60.91;100429.84;4975072;28;20042;-76
2022/11/21 02:52:35;;;;;;;18.05;16.95;;;;;;;8.98;60.77;100436.06;4990663;28;20056;-76
2022/11/21 02:55:00;;;;;;;16.40;15.13;;;;;;;8.98;60.92;100433.38;4974054;28;20541;-76
2022/11/21 02:57:26;;;;;;;17.25;16.05;;;;;;;8.98;60.74;100438.75;4974972;28;20042;-75
2022/11/21 02:59:51;;;;;;;17.63;16.35;;;;;;;8.98;60.89;100427.97;4975324;28;20031;-76
2022/11/21 03:02:16;;;;;;;18.55;17.30;;;;;;;8.98;60.85;100433.38;4957840;28;20046;-76
2022/11/21 03:04:42;;;;;;;17.73;16.70;;;;;;;8.99;60.86;100436.88;4974112;28;20066;-76
2022/11/21 03:07:07;;;;;;;17.85;16.67;;;;;;;8.98;60.97;100433.38;4974100;28;20509;-76
2022/11/21 03:09:33;;;;;;;18.58;17.38;;;;;;;8.98;60.80;100438.75;4974283;28;20027;-76
2022/11/21 03:11:58;;;;;;;16.33;15.43;;;;;;;8.99;60.82;100436.88;4975447;28;20430;-76
2022/11/21 03:14:23;;;;;;;16.52;15.50;;;;;;;8.98;60.81;100430.66;4990610;28;20031;-76
2022/11/21 03:16:49;;;;;;;17.63;16.42;;;;;;;8.98;60.66;100427.97;4973605;28;20463;-76
2022/11/21 03:19:14;;;;;;;18.73;17.52;;;;;;;8.98;60.82;100432.56;4974240;28;20026;-76
2022/11/21 03:21:39;;;;;;;15.45;14.57;;;;;;;8.98;60.57;100429.84;4974077;28;20027;-76
2022/11/21 03:24:05;;;;;;;17.75;16.55;;;;;;;8.98;60.67;100424.47;4973667;28;20522;-76
2022/11/21 03:26:31;;;;;;;18.10;17.00;;;;;;;8.97;60.96;100434.44;4990110;28;20122;-76
2022/11/21 03:28:56;;;;;;;16.83;15.63;;;;;;;8.98;60.57;100430.66;4989890;28;20062;-75
2022/11/21 03:31:21;;;;;;;18.80;17.60;;;;;;;8.97;60.65;100428.22;4989950;28;20467;-76
2022/11/21 03:33:47;;;;;;;17.25;16.25;;;;;;;8.97;60.62;100428.22;4973521;28;20043;-76
2022/11/21 03:36:12;;;;;;;18.45;17.00;;;;;;;8.96;60.67;100421.19;4989250;28;20078;-76
2022/11/21 03:38:37;;;;;;;17.20;16.20;;;;;;;8.94;60.84;100416.03;4973620;28;20085;-75
2022/11/21 03:41:05;;;;;;;16.70;15.80;;;;;;;8.95;60.72;100424.97;4990422;28;20089;-76
2022/11/21 03:43:30;;;;;;;16.73;15.52;;;;;;;8.95;60.88;100424.97;4974363;28;20080;-76
2022/11/21 03:45:55;;;;;;;17.08;15.77;;;;;;;8.93;60.67;100417.09;4990492;28;20460;-77
2022/11/21 03:48:21;;;;;;;19.90;18.55;;;;;;;8.94;60.68;100434.06;4989772;28;20034;-77
2022/11/21 03:50:46;;;;;;;18.58;17.42;;;;;;;8.92;60.61;100426.25;4989861;28;20039;-77
2022/11/21 03:53:12;;;;;;;16.80;15.75;;;;;;;8.92;60.62;100426.25;4974999;28;20043;-77
2022/11/21 03:55:37;;;;;;;16.25;15.35;;;;;;;8.92;60.61;100415.47;4973635;28;20390;-76
2022/11/21 03:58:02;;;;;;;17.00;15.98;;;;;;;8.92;60.81;100414.63;4973726;28;20050;-78
2022/11/21 04:00:28;;;;;;;17.52;16.42;;;;;;;8.92;60.77;100409.25;4974845;28;20039;-76
2022/11/21 04:02:53;;;;;;;17.55;16.40;;;;;;;8.91;60.72;100408.44;4973973;28;20027;-76
2022/11/21 04:05:18;;;;;;;19.55;18.23;;;;;;;8.91;60.96;100411.13;4958061;28;20062;-76
2022/11/21 04:07:45;;;;;;;16.83;15.75;;;;;;;8.90;60.74;100409.50;4973402;28;20046;-76
2022/11/21 04:10:10;;;;;;;17.27;16.17;;;;;;;8.90;60.57;100417.59;4974623;28;20022;-76
2022/11/21 04:12:36;;;;;;;16.60;15.55;;;;;;;8.90;60.72;100414.91;4973437;28;20035;-77
2022/11/21 04:15:01;;;;;;;16.42;15.38;;;;;;;8.90;60.64;100417.59;4973924;28;20031;-77
2022/11/21 04:17:26;;;;;;;18.83;17.63;;;;;;;8.90;61.09;100412.19;4973288;28;20074;-77
2022/11/21 04:19:52;;;;;;;17.77;16.77;;;;;;;8.87;60.76;100408.13;4957217;28;20058;-77
2022/11/21 04:22:17;;;;;;;17.90;16.75;;;;;;;8.88;60.59;100411.63;4973163;28;20510;-77
2022/11/21 04:24:42;;;;;;;16.63;15.63;;;;;;;8.88;60.95;100411.63;4973259;28;20427;-76
2022/11/21 04:27:08;;;;;;;17.55;16.50;;;;;;;8.87;60.75;100410.81;4989411;28;20495;-76
2022/11/21 04:29:33;;;;;;;16.98;15.77;;;;;;;8.86;60.59;100406.47;4973862;28;20035;-77
2022/11/21 04:31:58;;;;;;;17.67;16.58;;;;;;;8.87;60.44;100412.69;4974144;28;20058;-77
2022/11/21 04:34:24;;;;;;;17.60;16.33;;;;;;;8.86;60.67;100403.75;4973113;28;20031;-78
2022/11/21 04:36:49;;;;;;;16.75;15.85;;;;;;;8.86;60.64;100419.94;4972631;28;20105;-77
2022/11/21 04:39:14;;;;;;;16.33;15.40;;;;;;;8.85;60.92;100410.22;4990734;28;20042;-79
2022/11/21 04:41:40;;;;;;;17.13;16.15;;;;;;;8.85;60.88;100404.03;4977346;28;20479;-76
2022/11/21 04:44:05;;;;;;;16.90;15.90;;;;;;;8.85;60.73;100402.13;4977721;28;20438;-77
2022/11/21 04:46:31;;;;;;;18.40;17.30;;;;;;;8.84;60.64;100400.53;4993400;28;20054;-77
2022/11/21 04:48:56;;;;;;;15.80;14.85;;;;;;;8.84;60.78;100400.53;4977636;28;20031;-77
2022/11/21 04:51:21;;;;;;;17.35;16.25;;;;;;;8.84;60.57;100408.59;4976572;28;20039;-77
2022/11/21 04:53:47;;;;;;;15.55;14.70;;;;;;;8.83;60.92;100398.06;4977876;28;20081;-77
2022/11/21 04:56:15;;;;;;;16.67;15.57;;;;;;;8.83;60.87;100393.47;4977937;28;20035;-77
2022/11/21 04:58:43;;;;;;;16.52;15.50;;;;;;;8.82;60.75;100394.56;4976612;28;20038;-77
2022/11/21 05:01:09;;;;;;;16.67;15.70;;;;;;;8.82;60.64;100388.31;4977519;28;20031;-77
2022/11/21 05:03:35;;;;;;;16.73;15.55;;;;;;;8.81;60.85;100381.31;4977724;28;20027;-77
2022/11/21 05:06:01;;;;;;;17.02;16.00;;;;;;;8.82;60.82;100374.84;4977714;28;20066;-78
2022/11/21 05:08:26;;;;;;;18.35;17.13;;;;;;;8.82;60.52;100377.53;4993038;28;20070;-77
2022/11/21 05:13:36;;;;;;;16.58;15.57;;;;;;;8.80;60.53;100377.81;4976781;28;20126;-77
2022/11/21 05:16:01;;;;;;;17.02;16.13;;;;;;;8.79;60.50;100376.16;4977512;28;20062;-77
2022/11/21 05:18:27;;;;;;;17.17;16.08;;;;;;;8.79;60.77;100372.66;4976172;28;20027;-77
2022/11/21 05:20:52;;;;;;;16.67;15.77;;;;;;;8.79;60.78;100372.66;4976130;28;20394;-78
2022/11/21 05:23:17;;;;;;;17.02;16.08;;;;;;;8.79;60.83;100357.31;4976104;28;20062;-77
2022/11/21 05:25:43;;;;;;;17.30;16.30;;;;;;;8.79;60.90;100359.19;4976056;28;20030;-77
2022/11/21 05:28:08;;;;;;;17.52;16.48;;;;;;;8.78;60.67;100346.78;4992292;28;20086;-77
2022/11/21 05:30:34;;;;;;;18.27;17.08;;;;;;;8.78;60.47;100346.78;4975901;28;20026;-78
2022/11/21 05:32:59;;;;;;;17.50;16.13;;;;;;;8.78;60.77;100347.59;4976184;28;20039;-77
2022/11/21 05:35:25;;;;;;;18.52;17.20;;;;;;;8.78;60.69;100346.78;4992001;28;20062;-77
2022/11/21 05:37:57;;;;;;;17.35;16.35;;;;;;;8.77;60.88;100345.13;4992623;28;20370;-78
2022/11/21 05:40:24;;;;;;;16.23;15.30;;;;;;;8.77;60.84;100345.13;4975835;28;20031;-77
2022/11/21 05:45:33;;;;;;;20.25;18.90;;;;;;;8.77;60.57;100340.59;4962653;28;20041;-77
2022/11/21 05:47:58;;;;;;;17.25;16.25;;;;;;;8.76;60.86;100338.94;4976837;28;20038;-77
2022/11/21 05:50:23;;;;;;;16.83;15.80;;;;;;;8.76;60.69;100330.03;4974685;28;20114;-78
2022/11/21 05:52:49;;;;;;;16.05;15.15;;;;;;;8.75;60.59;100331.13;4974952;28;20038;-77
2022/11/21 05:55:14;;;;;;;18.10;16.77;;;;;;;8.75;60.87;100329.22;4975440;28;20027;-77
2022/11/21 05:57:40;;;;;;;18.02;16.77;;;;;;;8.75;60.62;100331.94;4991682;28;20027;-76
2022/11/21 06:00:06;;;;;;;15.90;14.90;;;;;;;8.76;60.79;100327.34;4976337;28;20074;-77
2022/11/21 06:05:15;;;;;;;18.77;17.48;;;;;;;8.73;60.88;100319.75;4962571;28;20379;-77
2022/11/21 06:07:40;;;;;;;19.00;17.80;;;;;;;8.74;60.56;100324.06;4991791;28;20043;-77
2022/11/21 06:10:06;;;;;;;16.40;15.18;;;;;;;8.74;60.66;100318.69;4976741;28;20050;-76
2022/11/21 06:12:31;;;;;;;17.60;16.30;;;;;;;8.74;60.92;100321.38;4976164;28;20525;-76
2022/11/21 06:14:57;;;;;;;18.88;17.58;;;;;;;8.74;60.68;100307.91;4975427;28;20030;-75
2022/11/21 06:17:22;;;;;;;17.48;16.38;;;;;;;8.73;60.72;100304.41;4974944;28;20397;-75
2022/11/21 06:19:47;;;;;;;17.38;16.17;;;;;;;8.74;60.74;100307.91;4975456;28;20130;-76
2022/11/21 06:22:13;;;;;;;18.67;17.38;;;;;;;8.73;60.74;100315.19;4976132;28;20090;-75
2022/11/21 06:24:38;;;;;;;19.33;18.02;;;;;;;8.73;60.54;100311.69;4991026;28;20043;-75
2022/11/21 06:27:03;;;;;;;17.55;16.35;;;;;;;8.73;60.87;100315.19;4991139;28;20487;-75
2022/11/21 06:29:29;;;;;;;18.02;16.33;;;;;;;8.73;60.56;100304.41;4991472;28;20486;-76
2022/11/21 06:31:54;;;;;;;18.05;16.92;;;;;;;8.73;60.79;100307.09;4991201;28;20494;-75
2022/11/21 06:34:20;;;;;;;17.60;16.25;;;;;;;8.74;60.76;100305.22;4974948;28;20058;-76
2022/11/21 06:36:45;;;;;;;18.63;17.38;;;;;;;8.74;60.82;100302.53;4990528;28;20050;-74
2022/11/21 06:39:11;;;;;;;17.20;16.10;;;;;;;8.74;60.56;100307.91;4974891;28;20047;-75
2022/11/21 06:41:36;;;;;;;19.02;17.73;;;;;;;8.74;60.82;100297.16;4974678;28;20038;-75
2022/11/21 06:44:02;;;;;;;17.25;16.25;;;;;;;8.73;60.64;100296.34;4974713;28;20074;-74
2022/11/21 06:46:27;;;;;;;19.33;17.80;;;;;;;8.72;60.77;100301.94;4974474;28;20042;-77
2022/11/21 06:48:53;;;;;;;18.67;17.48;;;;;;;8.73;60.68;100295.53;4974273;28;20045;-76
2022/11/21 06:51:19;;;;;;;17.98;16.88;;;;;;;8.72;60.57;100296.56;4975806;28;20041;-76
2022/11/21 06:53:47;;;;;;;19.25;17.85;;;;;;;8.74;60.73;100297.16;4975633;28;20046;-76
2022/11/21 06:56:14;;;;;;;17.38;16.27;;;;;;;8.72;60.93;100286.63;4975706;28;20042;-79
2022/11/21 06:58:39;;;;;;;20.02;18.63;;;;;;;8.72;60.79;100283.09;4974296;28;20395;-75
2022/11/21 07:01:07;;;;;;;17.90;16.73;;;;;;;8.72;60.79;100285.78;4975745;28;20046;-76
2022/11/21 07:03:33;;;;;;;18.70;17.52;;;;;;;8.71;60.70;100281.47;4973718;28;20467;-76
2022/11/21 07:06:00;;;;;;;18.17;17.08;;;;;;;8.71;60.95;100301.16;4990341;28;20038;-75
2022/11/21 07:08:27;;;;;;;19.08;17.55;;;;;;;8.70;60.80;100288.75;4974145;28;20043;-75
2022/11/21 07:10:52;;;;;;;17.88;16.55;;;;;;;8.70;60.78;100288.75;4975220;28;20035;-76
2022/11/21 07:13:20;;;;;;;17.88;16.58;;;;;;;8.71;60.87;100292.25;4990139;28;20417;-76
2022/11/21 07:15:47;;;;;;;18.70;17.30;;;;;;;8.70;60.62;100277.16;4975201;28;20058;-76
2022/11/21 07:18:13;;;;;;;17.05;16.05;;;;;;;8.70;60.84;100285.25;4973975;28;20274;-75
2022/11/21 07:20:39;;;;;;;20.27;18.85;;;;;;;8.69;60.83;100273.63;4973943;28;20042;-75
2022/11/21 07:23:05;;;;;;;19.40;18.00;;;;;;;8.69;60.76;100281.72;4973757;28;20137;-76
2022/11/21 07:25:31;;;;;;;18.40;17.00;;;;;;;8.68;60.72;100290.84;4974818;28;20491;-76
2022/11/21 07:28:00;;;;;;;18.45;17.25;;;;;;;8.70;60.96;100285.25;4989958;28;20030;-75
2022/11/21 07:30:26;;;;;;;19.38;18.08;;;;;;;8.68;60.95;100285.47;4973775;28;20084;-75
2022/11/21 07:32:56;;;;;;;17.63;16.42;;;;;;;8.68;60.78;100279.28;4990145;28;20034;-75
2022/11/21 07:35:22;;;;;;;20.17;18.75;;;;;;;8.68;60.71;100285.47;4990640;28;20031;-76
2022/11/21 07:37:47;;;;;;;19.60;18.20;;;;;;;8.68;60.71;100284.66;4974071;28;20059;-75
2022/11/21 07:40:12;;;;;;;19.30;17.83;;;;;;;8.68;61.01;100287.34;4974214;28;20027;-75
2022/11/21 07:42:38;;;;;;;19.10;17.70;;;;;;;8.67;60.78;100278.47;4974209;28;20039;-75
2022/11/21 07:45:04;;;;;;;18.30;17.23;;;;;;;8.69;60.80;100278.22;4974504;28;20027;-75
2022/11/21 07:47:29;;;;;;;19.13;17.48;;;;;;;8.68;60.70;100274.72;4989966;28;20382;-76
2022/11/21 07:49:54;;;;;;;18.33;17.02;;;;;;;8.68;60.77;100266.63;4973289;28;20039;-77
2022/11/21 07:52:20;;;;;;;19.55;18.15;;;;;;;8.69;61.08;100267.44;4972976;28;20031;-76
2022/11/21 07:54:45;;;;;;;18.48;17.17;;;;;;;8.69;60.72;100273.63;4973186;28;20030;-75
2022/11/21 07:57:10;;;;;;;18.98;17.83;;;;;;;8.69;60.93;100276.31;4957200;28;20114;-75
2022/11/21 07:59:37;;;;;;;19.70;18.20;;;;;;;8.69;60.71;100273.63;4972938;28;20130;-77
2022/11/21 08:02:02;;;;;;;18.10;16.90;;;;;;;8.70;60.93;100272.59;4973401;28;20031;-76
2022/11/21 08:04:28;;;;;;;19.08;17.77;;;;;;;8.69;60.82;100275.50;4973614;28;20343;-76
2022/11/21 08:06:54;;;;;;;19.30;18.08;;;;;;;8.70;60.76;100274.47;4988821;28;20030;-76
2022/11/21 08:09:19;;;;;;;17.70;16.48;;;;;;;8.69;60.79;100268.25;4974652;28;20038;-75
2022/11/21 08:11:44;;;;;;;19.83;18.52;;;;;;;8.69;60.78;100264.75;4972940;28;20035;-76
2022/11/21 08:14:10;;;;;;;19.13;17.77;;;;;;;8.69;60.79;100254.78;4989926;28;20045;-76
2022/11/21 08:16:35;;;;;;;18.92;17.55;;;;;;;8.69;60.94;100260.16;4976898;28;20465;-77
2022/11/21 08:19:01;;;;;;;18.65;17.45;;;;;;;8.69;60.63;100259.34;4978257;28;20031;-75
2022/11/21 08:21:26;;;;;;;17.52;16.42;;;;;;;8.69;61.00;100253.97;4977909;28;20027;-74
2022/11/21 08:23:52;;;;;;;20.58;19.17;;;;;;;8.68;60.87;100242.41;4976758;28;20463;-75
2022/11/21 08:26:18;;;;;;;17.88;16.65;;;;;;;8.70;60.60;100234.09;4993565;28;20537;-74
2022/11/21 08:28:43;;;;;;;17.63;16.42;;;;;;;8.69;60.61;100233.25;4992751;28;20118;-74
2022/11/21 08:31:09;;;;;;;18.02;16.83;;;;;;;8.69;60.73;100227.06;4992687;28;20034;-74
2022/11/21 08:33:34;;;;;;;17.42;15.73;;;;;;;8.69;60.81;100229.75;4977525;28;20074;-75
2022/11/21 08:36:06;;;;;;;19.95;18.45;;;;;;;8.69;60.82;100229.75;4992480;28;20049;-74
2022/11/21 08:38:32;;;;;;;18.48;17.13;;;;;;;8.68;60.41;100228.94;4993240;28;20074;-74
2022/11/21 08:43:42;;;;;;;19.67;18.35;;;;;;;8.66;60.80;100231.84;4977907;28;20082;-75
2022/11/21 08:46:07;;;;;;;20.25;18.65;;;;;;;8.68;60.77;100222.75;4976861;28;20125;-75
2022/11/21 08:48:33;;;;;;;16.20;15.20;;;;;;;8.67;61.05;100227.31;4976326;28;20121;-74
2022/11/21 08:50:58;;;;;;;18.08;16.60;;;;;;;8.67;60.81;100211.16;4992297;28;20041;-75
2022/11/21 08:53:24;;;;;;;18.15;17.05;;;;;;;8.68;60.89;100220.03;4976277;28;20045;-75
2022/11/21 08:55:49;;;;;;;18.73;17.42;;;;;;;8.66;60.79;100210.31;4975992;28;20391;-74
2022/11/21 08:58:15;;;;;;;17.38;16.33;;;;;;;8.68;60.90;100206.59;4992524;28;20062;-75
2022/11/21 09:00:40;;;;;;;18.65;17.48;;;;;;;8.66;60.73;100202.25;4976007;28;20121;-75
2022/11/21 09:03:05;;;;;;;19.45;17.77;;;;;;;8.67;60.65;100197.69;4976851;28;20063;-75
2022/11/21 09:05:32;;;;;;;18.45;17.13;;;;;;;8.65;60.91;100181.78;4976756;28;20502;-75
2022/11/21 09:07:58;;;;;;;19.92;18.52;;;;;;;8.68;60.62;100190.44;4976025;28;20110;-75
2022/11/21 09:10:27;;;;;;;17.17;16.08;;;;;;;8.66;60.91;100191.47;4977158;28;20442;-75
2022/11/21 09:12:53;;;;;;;18.88;17.52;;;;;;;8.67;60.66;100195.00;4992009;28;20035;-75
2022/11/21 09:18:03;;;;;;;20.58;18.98;;;;;;;8.65;60.83;100197.94;4990057;28;20118;-75
2022/11/21 09:20:38;;;;;;;18.48;17.27;;;;;;;8.66;60.83;100185.28;4991590;28;20035;-77
2022/11/21 09:23:08;;;;;;;18.05;16.85;;;;;;;8.66;60.77;100193.34;4977127;28;20031;-75
2022/11/21 09:25:34;;;;;;;20.48;18.98;;;;;;;8.66;60.71;100190.66;4977133;28;20035;-75
2022/11/21 09:28:01;;;;;;;21.33;19.25;;;;;;;8.65;60.80;100179.06;4959304;28;20434;-75
2022/11/21 09:30:26;;;;;;;16.23;15.15;;;;;;;8.65;60.59;100173.69;4976471;28;20038;-73
2022/11/21 09:32:51;;;;;;;19.75;18.10;;;;;;;8.66;60.65;100169.13;4976535;28;20035;-74
2022/11/21 09:35:17;;;;;;;17.83;16.65;;;;;;;8.66;60.80;100169.94;4991273;28;20541;-75
2022/11/21 09:37:42;;;;;;;19.27;18.02;;;;;;;8.66;60.66;100164.53;4976901;28;20087;-75
2022/11/21 09:40:14;;;;;;;20.13;18.67;;;;;;;8.65;60.75;100160.22;4975380;28;20041;-74
2022/11/21 09:43:14;;;;;;;18.75;17.65;;;;;;;8.65;60.77;100162.94;4977059;28;20027;-74
2022/11/21 09:45:43;;;;;;;19.27;17.90;;;;;;;8.64;60.99;100164.00;4991825;28;20442;-74
2022/11/21 09:48:17;;;;;;;18.80;17.23;;;;;;;8.64;60.96;100166.69;4975257;28;20524;-75
2022/11/21 09:51:01;;;;;;;17.05;16.05;;;;;;;8.64;61.09;100161.31;4976649;28;20031;-75
2022/11/21 09:53:32;;;;;;;17.90;16.80;;;;;;;8.64;60.77;100155.09;4976613;28;20041;-75
2022/11/21 09:56:01;;;;;;;19.92;18.35;;;;;;;8.64;61.01;100158.63;4975473;28;20446;-74
2022/11/21 09:58:31;;;;;;;;;;;;;;;8.65;60.61;100152.16;4991805;28;20125;-72
2022/11/21 10:00:57;;;;;;;20.23;18.77;;;;;;;8.63;60.78;100146.19;4974868;28;19914;-74
2022/11/21 10:03:30;;;;;;;16.00;14.90;;;;;;;8.63;60.71;100148.06;4976112;28;20133;-75
2022/11/21 10:06:12;;;;;;;20.17;18.58;;;;;;;8.65;60.92;100156.72;4976274;28;20046;-73
2022/11/21 10:08:50;;;;;;;17.15;16.02;;;;;;;8.64;60.79;100152.38;4975184;28;20142;-73
2022/11/21 10:15:08;;;;;;;16.92;15.82;;;;;;;8.63;60.62;100134.63;4958958;28;20057;-72
2022/11/21 10:18:16;;;;;;;16.80;15.75;;;;;;;8.62;60.80;100125.72;4976682;28;20082;-74
2022/11/21 10:21:00;;;;;;;16.58;15.05;;;;;;;8.61;60.70;100105.22;4976139;28;20034;-75
2022/11/21 10:23:46;;;;;;;15.98;14.98;;;;;;;8.63;60.79;100110.38;4976409;28;20031;-74
2022/11/21 10:26:36;;;;;;;18.63;17.23;;;;;;;8.63;61.13;100103.13;4975926;28;20062;-74
2022/11/21 10:29:25;;;;;;;18.60;17.25;;;;;;;8.63;60.79;100097.72;4976087;28;20046;-75
2022/11/21 10:31:57;;;;;;;17.17;15.93;;;;;;;8.64;60.89;100090.47;4973904;28;20486;-75
2022/11/21 10:34:31;;;;;;;18.55;17.10;;;;;;;8.65;60.71;100100.19;4990722;28;20034;-75
2022/11/21 10:37:02;;;;;;;17.17;16.08;;;;;;;8.66;60.86;100097.25;4974818;28;20070;-75
2022/11/21 10:39:49;;;;;;;18.92;17.73;;;;;;;8.66;60.88;100083.78;4975762;28;20081;-75
2022/11/21 10:42:26;;;;;;;17.98;16.65;;;;;;;8.68;60.98;100085.44;4974421;28;20027;-75
2022/11/21 10:47:38;;;;;;;18.35;17.23;;;;;;;8.69;60.74;100084.34;4974987;28;20126;-74
2022/11/21 10:50:32;;;;;;;18.75;17.25;;;;;;;8.68;60.86;100083.53;4991045;28;20035;-74
2022/11/21 10:56:11;;;;;;;18.85;17.55;;;;;;;8.69;60.89;100076.28;4975772;28;20085;-73
2022/11/21 10:58:43;;;;;;;17.50;15.68;;;;;;;8.69;60.62;100060.94;4975249;28;20053;-75
2022/11/21 11:01:20;;;;;;;17.63;16.52;;;;;;;8.70;60.86;100062.56;4973964;28;20094;-74
2022/11/21 11:03:46;;;;;;;16.83;15.68;;;;;;;8.72;61.09;100060.47;4975142;28;20030;-74
2022/11/21 11:06:11;;;;;;;16.73;15.73;;;;;;;8.75;60.78;100053.75;4974004;28;20049;-74
2022/11/21 11:08:51;;;;;;;17.23;16.13;;;;;;;8.75;61.06;100059.97;4973567;28;20039;-75
2022/11/21 11:11:20;;;;;;;17.67;16.33;;;;;;;8.75;60.79;100051.06;4974981;28;20110;-74
2022/11/21 11:13:57;;;;;;;15.68;14.68;;;;;;;8.75;60.99;100043.78;4975222;28;20085;-74
2022/11/21 11:16:25;;;;;;;18.05;16.95;;;;;;;8.77;60.88;100035.44;4975233;28;20027;-76
2022/11/21 11:19:19;;;;;;;17.10;15.90;;;;;;;8.78;60.99;100035.22;4975188;28;20031;-76
2022/11/21 11:21:45;;;;;;;17.20;16.05;;;;;;;8.78;60.79;100021.75;4987799;28;20034;-75
2022/11/21 11:24:11;;;;;;;17.25;16.27;;;;;;;8.78;60.88;100012.88;4973496;28;20078;-75
2022/11/21 11:26:45;;;;;;;19.42;17.85;;;;;;;8.78;61.04;100010.97;4989582;28;20479;-76
2022/11/21 11:29:29;;;;;;;16.48;15.35;;;;;;;8.79;61.21;100001.81;4974412;28;20033;-76
2022/11/21 11:31:57;;;;;;;19.98;18.30;;;;;;;8.80;60.91;99997.28;4990432;28;20043;-75
2022/11/21 11:34:52;;;;;;;18.17;16.92;;;;;;;8.80;61.18;99986.50;4989901;28;20609;-75
2022/11/21 11:37:45;;;;;;;16.58;15.38;;;;;;;8.80;61.14;99981.94;4955330;28;20074;-75
2022/11/21 11:40:36;;;;;;;16.85;15.13;;;;;;;8.80;61.25;99963.09;4974509;28;20027;-75
2022/11/21 11:50:10;;;;;;;17.77;16.58;;;;;;;8.80;60.93;99936.16;4974397;28;20037;-75